Weather at Arnot Power Station Airport

Public forecast

Using degrees Celsius for public forecast. Weather courtesy of forecast.io.

Closest aviation weather report (METAR) to Arnot Power Station Airport

Report is more than 6 hours old.

Closest report is Ermelo Airport, 34.5 nm (63.9 km) SSE. Retrieved 2020/11/23 09:37 UTC (8 hours ago):

FAEO 230937Z 33013KT CAVOK 25/13 Q1021

Closest aviation forecast (TAF) to Arnot Power Station Airport

Forecast is more than 12 hours old.

Closest forecast is Ermelo Airport, 34.5 nm (63.9 km) SSE. Retrieved 2017/06/05 04:55 UTC (3 years ago):

TAF FAEO 050300Z 0504/0515 09006KT CAVOK TX18/0513ZTN05/0504Z